createdAt,value
2022-10-28T00:00:54.523Z,4.60
2022-10-28T00:03:22.343Z,4.90
2022-10-28T00:05:50.162Z,5.03
2022-10-28T00:08:17.995Z,5.00
2022-10-28T00:10:45.813Z,5.17
2022-10-28T00:13:13.642Z,4.60
2022-10-28T00:15:42.778Z,5.50
2022-10-28T00:18:11.218Z,4.80
2022-10-28T00:20:39.028Z,5.10
2022-10-28T00:23:06.840Z,5.23
2022-10-28T00:25:34.652Z,4.93
2022-10-28T00:28:02.468Z,5.10
2022-10-28T00:33:00.407Z,5.30
2022-10-28T00:35:28.264Z,5.33
2022-10-28T00:37:56.082Z,4.83
2022-10-28T00:40:24.059Z,5.23
2022-10-28T00:42:52.344Z,4.87
2022-10-28T00:45:20.431Z,4.97
2022-10-28T00:47:52.545Z,4.73
2022-10-28T00:50:38.354Z,4.73
2022-10-28T00:53:09.920Z,4.90
2022-10-28T00:55:38.345Z,5.40
2022-10-28T00:58:09.255Z,5.83
2022-10-28T01:00:37.386Z,5.30
2022-10-28T01:03:05.342Z,5.20
2022-10-28T01:05:38.722Z,5.00
2022-10-28T01:08:07.783Z,5.33
2022-10-28T01:10:52.794Z,5.27
2022-10-28T01:13:28.687Z,5.50
2022-10-28T01:16:02.942Z,5.13
2022-10-28T01:18:40.563Z,5.10
2022-10-28T01:21:33.935Z,5.23
2022-10-28T01:24:15.099Z,5.27
2022-10-28T01:27:07.091Z,5.70
2022-10-28T01:30:00.233Z,5.17
2022-10-28T01:32:36.035Z,4.70
2022-10-28T01:35:15.010Z,5.17
2022-10-28T01:37:54.967Z,4.90
2022-10-28T01:40:29.967Z,4.50
2022-10-28T01:43:06.171Z,5.00
2022-10-28T01:45:38.132Z,4.97
2022-10-28T01:48:12.047Z,4.63
2022-10-28T01:50:47.601Z,4.50
2022-10-28T01:53:20.176Z,4.67
2022-10-28T01:55:51.214Z,4.80
2022-10-28T01:58:22.568Z,4.17
2022-10-28T02:00:51.242Z,4.50
2022-10-28T02:03:20.640Z,4.60
2022-10-28T02:05:50.636Z,4.50
2022-10-28T02:08:48.348Z,4.30
2022-10-28T02:11:30.654Z,4.50
2022-10-28T02:14:07.039Z,4.30
2022-10-28T02:16:42.480Z,4.57
2022-10-28T02:19:19.696Z,4.10
2022-10-28T02:21:55.866Z,4.50
2022-10-28T02:24:30.648Z,4.50
2022-10-28T02:27:07.814Z,3.93
2022-10-28T02:29:40.343Z,4.10
2022-10-28T02:32:12.019Z,4.40
2022-10-28T02:34:45.602Z,4.93
2022-10-28T02:37:17.002Z,4.17
2022-10-28T02:39:48.580Z,4.07
2022-10-28T02:42:21.217Z,4.10
2022-10-28T02:44:54.249Z,4.17
2022-10-28T02:47:27.363Z,3.87
2022-10-28T02:49:59.104Z,4.00
2022-10-28T02:52:29.709Z,4.60
2022-10-28T02:55:00.116Z,4.50
2022-10-28T02:57:30.879Z,4.23
2022-10-28T03:00:00.682Z,4.10
2022-10-28T03:02:29.250Z,4.97
2022-10-28T03:04:58.442Z,4.87
2022-10-28T03:07:26.274Z,4.50
2022-10-28T03:09:54.091Z,4.57
2022-10-28T03:12:21.973Z,3.90
2022-10-28T03:14:49.782Z,4.07
2022-10-28T03:17:17.694Z,4.83
2022-10-28T03:19:45.502Z,4.27
2022-10-28T03:22:14.655Z,4.30
2022-10-28T03:24:42.472Z,4.70
2022-10-28T03:27:10.282Z,5.03
2022-10-28T03:29:42.045Z,4.50
2022-10-28T03:32:12.879Z,4.73
2022-10-28T03:34:40.734Z,4.10
2022-10-28T03:37:08.565Z,4.73
2022-10-28T03:39:37.776Z,4.20
2022-10-28T03:42:05.701Z,4.50
2022-10-28T03:44:33.588Z,3.83
2022-10-28T03:47:01.442Z,4.40
2022-10-28T03:49:29.282Z,4.33
2022-10-28T03:51:57.130Z,4.27
2022-10-28T03:54:24.935Z,4.30
2022-10-28T03:56:54.106Z,4.57
2022-10-28T03:59:22.808Z,4.30
2022-10-28T04:01:50.704Z,4.30
2022-10-28T04:04:18.731Z,4.07
2022-10-28T04:06:46.573Z,4.23
2022-10-28T04:09:14.443Z,4.63
2022-10-28T04:11:42.255Z,4.20
2022-10-28T04:14:11.415Z,5.23
2022-10-28T04:16:39.224Z,4.30
2022-10-28T04:19:07.075Z,4.63
2022-10-28T04:21:35.167Z,4.30
2022-10-28T04:24:03.037Z,4.73
2022-10-28T04:26:31.734Z,4.87
2022-10-28T04:28:59.561Z,4.67
2022-10-28T04:31:28.719Z,4.87
2022-10-28T04:33:56.519Z,4.80
2022-10-28T04:36:24.345Z,4.40
2022-10-28T04:38:52.799Z,4.70
2022-10-28T04:41:20.632Z,4.90
2022-10-28T04:43:48.463Z,4.83
2022-10-28T04:46:16.377Z,5.27
2022-10-28T04:48:48.047Z,4.97
2022-10-28T04:51:16.054Z,4.90
2022-10-28T04:53:43.948Z,5.33
2022-10-28T04:56:11.768Z,4.90
2022-10-28T04:58:39.612Z,4.73
2022-10-28T05:01:08.393Z,4.90
2022-10-28T05:03:36.601Z,5.13
2022-10-28T05:06:05.980Z,4.37
2022-10-28T05:08:33.831Z,4.63
2022-10-28T05:11:01.696Z,4.63
2022-10-28T05:13:29.525Z,4.97
2022-10-28T05:15:57.337Z,5.27
2022-10-28T05:18:25.282Z,5.20
2022-10-28T05:20:54.854Z,4.77
2022-10-28T05:23:27.199Z,4.90
2022-10-28T05:25:57.812Z,5.30
2022-10-28T05:28:25.812Z,5.20
2022-10-28T05:30:53.755Z,5.23
2022-10-28T05:33:21.811Z,5.33
2022-10-28T05:35:49.802Z,5.20
2022-10-28T05:38:17.678Z,5.23
2022-10-28T05:40:46.923Z,5.50
2022-10-28T05:43:14.763Z,4.97
2022-10-28T05:45:42.631Z,5.30
2022-10-28T05:48:10.645Z,5.20
2022-10-28T05:50:38.492Z,5.13
2022-10-28T05:53:06.334Z,5.53
2022-10-28T05:55:35.283Z,5.20
2022-10-28T05:58:04.496Z,5.03
2022-10-28T06:00:32.976Z,5.10
2022-10-28T06:03:06.752Z,5.87
2022-10-28T06:05:34.616Z,5.27
2022-10-28T06:08:02.578Z,5.17
2022-10-28T06:10:30.391Z,5.00
2022-10-28T06:12:56.797Z,5.10
2022-10-28T06:15:25.939Z,5.57
2022-10-28T06:17:53.770Z,5.47
2022-10-28T06:20:21.652Z,4.87
2022-10-28T06:22:50.879Z,5.50
2022-10-28T06:25:20.769Z,5.20
2022-10-28T06:27:53.276Z,5.57
2022-10-28T06:30:22.418Z,5.70
2022-10-28T06:32:51.652Z,5.80
2022-10-28T06:35:19.614Z,5.47
2022-10-28T06:37:47.539Z,5.23
2022-10-28T06:40:15.545Z,5.37
2022-10-28T06:42:43.372Z,5.80
2022-10-28T06:45:11.231Z,5.70
2022-10-28T06:47:41.666Z,5.53
2022-10-28T06:50:11.341Z,5.67
2022-10-28T06:52:39.242Z,6.37
2022-10-28T06:55:07.832Z,6.97
2022-10-28T06:57:35.661Z,7.10
2022-10-28T07:00:03.779Z,6.23
2022-10-28T07:02:31.753Z,5.57
2022-10-28T07:04:59.782Z,6.03
2022-10-28T07:07:28.977Z,5.57
2022-10-28T07:09:56.834Z,6.03
2022-10-28T07:12:24.700Z,5.47
2022-10-28T07:14:52.494Z,5.27
2022-10-28T07:17:20.322Z,5.50
2022-10-28T07:19:48.120Z,5.40
2022-10-28T07:22:16.023Z,5.63
2022-10-28T07:24:45.215Z,5.33
2022-10-28T07:27:13.464Z,5.77
2022-10-28T07:29:41.374Z,6.03
2022-10-28T07:32:09.170Z,5.90
2022-10-28T07:34:37.007Z,5.30
2022-10-28T07:37:06.067Z,5.30
2022-10-28T07:39:34.056Z,5.80
2022-10-28T07:42:03.304Z,5.60
2022-10-28T07:44:31.133Z,5.70
2022-10-28T07:46:58.945Z,5.00
2022-10-28T07:49:26.835Z,5.00
2022-10-28T07:51:54.675Z,5.30
2022-10-28T07:54:22.586Z,5.33
2022-10-28T07:56:50.414Z,5.97
2022-10-28T07:59:25.650Z,5.43
2022-10-28T08:01:55.253Z,4.93
2022-10-28T08:04:23.392Z,5.03
2022-10-28T08:06:51.417Z,4.97
2022-10-28T08:09:19.490Z,4.97
2022-10-28T08:11:47.340Z,5.07
2022-10-28T08:14:15.654Z,4.93
2022-10-28T08:16:46.242Z,4.40
2022-10-28T08:19:14.246Z,5.13
2022-10-28T08:21:42.147Z,5.60
2022-10-28T08:24:10.390Z,4.80
2022-10-28T08:26:38.218Z,5.17
2022-10-28T08:29:06.831Z,5.03
2022-10-28T08:31:35.361Z,5.37
2022-10-28T08:34:04.540Z,4.57
2022-10-28T08:36:32.373Z,4.63
2022-10-28T08:39:01.677Z,4.97
2022-10-28T08:41:35.926Z,4.70
2022-10-28T08:44:42.919Z,4.80
2022-10-28T08:47:19.931Z,4.73
2022-10-28T08:49:56.408Z,4.67
2022-10-28T08:52:33.969Z,4.40
2022-10-28T08:55:05.313Z,4.73
2022-10-28T08:57:39.897Z,4.73
2022-10-28T09:00:14.335Z,4.43
2022-10-28T09:02:52.015Z,4.50
2022-10-28T09:05:24.611Z,4.60
2022-10-28T09:07:53.168Z,4.13
2022-10-28T09:10:37.138Z,4.33
2022-10-28T09:13:12.534Z,4.33
2022-10-28T09:15:48.468Z,4.60
2022-10-28T09:18:19.985Z,4.50
2022-10-28T09:20:54.294Z,4.77
2022-10-28T09:23:29.693Z,4.60
2022-10-28T09:26:09.652Z,5.17
2022-10-28T09:28:52.039Z,4.43
2022-10-28T09:31:27.154Z,4.37
2022-10-28T09:34:09.070Z,4.30
2022-10-28T09:36:43.099Z,4.37
2022-10-28T09:39:17.841Z,4.37
2022-10-28T09:41:46.734Z,4.43
2022-10-28T09:44:19.398Z,4.47
2022-10-28T09:46:49.482Z,4.70
2022-10-28T09:49:21.944Z,4.33
2022-10-28T09:51:56.829Z,4.37
2022-10-28T09:54:33.676Z,4.70
2022-10-28T09:57:02.876Z,4.17
2022-10-28T09:59:30.915Z,4.07
2022-10-28T10:01:58.919Z,4.93
2022-10-28T10:04:31.130Z,4.50
2022-10-28T10:07:06.089Z,4.40
2022-10-28T10:09:36.688Z,4.60
2022-10-28T10:12:09.250Z,3.80
2022-10-28T10:14:41.247Z,4.07
2022-10-28T10:17:15.835Z,4.20
2022-10-28T10:20:05.001Z,4.30
2022-10-28T10:22:36.095Z,4.33
2022-10-28T10:25:04.214Z,4.30
2022-10-28T10:27:32.650Z,4.23
2022-10-28T10:30:00.987Z,4.10
2022-10-28T10:32:32.178Z,4.27
2022-10-28T10:35:03.716Z,4.03
2022-10-28T10:37:36.983Z,4.53
2022-10-28T10:40:19.330Z,3.83
2022-10-28T10:43:09.656Z,4.10
2022-10-28T10:45:35.281Z,4.30
2022-10-28T10:48:12.650Z,4.63
2022-10-28T10:50:41.843Z,4.30
2022-10-28T10:53:21.226Z,4.10
2022-10-28T10:55:55.206Z,4.30
2022-10-28T10:58:25.114Z,4.33
2022-10-28T11:00:55.411Z,4.77
2022-10-28T11:03:27.812Z,4.73
2022-10-28T11:06:22.667Z,4.37
2022-10-28T11:08:48.048Z,4.70
2022-10-28T11:11:20.880Z,4.43
2022-10-28T11:13:50.424Z,4.40
2022-10-28T11:16:20.945Z,4.20
2022-10-28T11:18:51.090Z,4.30
2022-10-28T11:21:42.387Z,4.27
2022-10-28T11:24:38.893Z,4.37
2022-10-28T11:27:16.916Z,4.27
2022-10-28T11:29:46.463Z,3.73
2022-10-28T11:32:28.855Z,4.33
2022-10-28T11:35:27.224Z,3.87
2022-10-28T11:38:06.158Z,4.07
2022-10-28T11:40:41.562Z,4.33
2022-10-28T11:43:22.158Z,3.93
2022-10-28T11:45:59.738Z,3.87
2022-10-28T11:48:43.380Z,4.87
2022-10-28T11:51:24.645Z,4.53
2022-10-28T11:54:22.286Z,4.20
2022-10-28T11:56:59.194Z,3.77
2022-10-28T12:00:01.080Z,4.57
2022-10-28T12:02:49.352Z,3.83
2022-10-28T12:05:25.285Z,4.10
2022-10-28T12:08:08.321Z,4.40
2022-10-28T12:10:56.679Z,4.37
2022-10-28T12:13:34.648Z,4.13
2022-10-28T12:16:09.129Z,4.50
2022-10-28T12:18:48.239Z,4.53
2022-10-28T12:21:22.882Z,4.27
2022-10-28T12:23:51.177Z,3.97
2022-10-28T12:26:21.646Z,4.87
2022-10-28T12:28:56.302Z,3.97
2022-10-28T12:31:29.168Z,3.87
2022-10-28T12:33:59.700Z,3.93
2022-10-28T12:36:33.782Z,4.20
2022-10-28T12:39:04.982Z,4.13
2022-10-28T12:41:47.589Z,4.37
2022-10-28T12:44:21.245Z,4.30
2022-10-28T12:46:58.753Z,4.30
2022-10-28T12:49:37.935Z,4.20
2022-10-28T12:52:15.393Z,4.27
2022-10-28T12:54:53.744Z,4.00
2022-10-28T12:57:25.103Z,4.73
2022-10-28T12:59:59.766Z,4.57
2022-10-28T13:02:33.237Z,4.43
2022-10-28T13:05:01.167Z,3.60
2022-10-28T13:07:45.423Z,4.67
2022-10-28T13:13:13.405Z,4.67
2022-10-28T13:16:08.448Z,4.20
2022-10-28T13:19:00.691Z,4.00
2022-10-28T13:21:40.469Z,3.90
2022-10-28T13:24:17.450Z,4.00
2022-10-28T13:26:46.312Z,4.10
2022-10-28T13:29:22.875Z,4.30
2022-10-28T13:31:53.023Z,4.33
2022-10-28T13:34:23.297Z,4.13
2022-10-28T13:36:57.801Z,4.67
2022-10-28T13:39:40.659Z,4.70
2022-10-28T13:42:50.368Z,4.07
2022-10-28T13:45:48.113Z,4.53
2022-10-28T13:48:54.542Z,4.20
2022-10-28T13:51:34.667Z,4.37
2022-10-28T13:54:02.576Z,4.80
2022-10-28T13:56:47.438Z,4.07
2022-10-28T13:59:24.627Z,4.20
2022-10-28T14:02:34.042Z,4.90
2022-10-28T14:05:06.202Z,4.30
2022-10-28T14:07:37.289Z,4.13
2022-10-28T14:10:21.602Z,3.83
2022-10-28T14:12:52.847Z,4.00
2022-10-28T14:15:25.661Z,4.00
2022-10-28T14:18:04.923Z,4.10
2022-10-28T14:20:58.730Z,4.23
2022-10-28T14:24:11.702Z,3.93
2022-10-28T14:27:28.533Z,4.00
2022-10-28T14:30:23.597Z,3.87
2022-10-28T14:33:18.570Z,4.33
2022-10-28T14:35:49.042Z,4.10
2022-10-28T14:38:46.409Z,4.20
2022-10-28T14:41:35.276Z,4.33
2022-10-28T14:44:14.638Z,4.00
2022-10-28T14:46:53.120Z,4.10
2022-10-28T14:49:24.636Z,4.20
2022-10-28T14:51:54.178Z,4.17
2022-10-28T14:54:27.824Z,4.03
2022-10-28T14:56:58.061Z,4.40
2022-10-28T14:59:28.241Z,4.13
2022-10-28T15:02:03.236Z,4.60
2022-10-28T15:04:31.332Z,4.13
2022-10-28T15:06:59.589Z,4.43
2022-10-28T15:09:30.224Z,3.67
2022-10-28T15:12:02.159Z,4.10
2022-10-28T15:14:36.659Z,4.40
2022-10-28T15:17:12.721Z,4.00
2022-10-28T15:19:41.030Z,3.80
2022-10-28T15:22:15.467Z,4.63
2022-10-28T15:24:52.806Z,4.53
2022-10-28T15:27:23.038Z,3.67
2022-10-28T15:29:51.398Z,4.57
2022-10-28T15:32:28.114Z,4.50
2022-10-28T15:34:55.922Z,4.50
2022-10-28T15:37:26.126Z,4.53
2022-10-28T15:40:17.853Z,4.27
2022-10-28T15:42:52.779Z,4.60
2022-10-28T15:45:27.251Z,4.07
2022-10-28T15:47:56.942Z,4.13
2022-10-28T15:50:28.957Z,4.40
2022-10-28T15:53:21.256Z,4.50
2022-10-28T15:56:09.321Z,4.33
2022-10-28T15:58:40.169Z,4.13
2022-10-28T16:01:11.475Z,4.20
2022-10-28T16:03:44.412Z,3.97
2022-10-28T16:06:24.586Z,3.90
2022-10-28T16:09:08.388Z,4.17
2022-10-28T16:11:39.258Z,3.83
2022-10-28T16:14:34.475Z,4.40
2022-10-28T16:17:07.422Z,4.33
2022-10-28T16:19:38.990Z,3.90
2022-10-28T16:22:07.490Z,4.50
2022-10-28T16:24:35.287Z,4.50
2022-10-28T16:27:20.530Z,4.97
2022-10-28T16:29:50.030Z,5.20
2022-10-28T16:32:21.366Z,5.73
2022-10-28T16:34:49.203Z,5.10
2022-10-28T16:37:23.301Z,4.80
2022-10-28T16:39:51.305Z,4.63
2022-10-28T16:42:20.392Z,4.73
2022-10-28T16:44:50.261Z,5.30
2022-10-28T16:47:19.614Z,4.67
2022-10-28T16:49:52.396Z,4.87
2022-10-28T16:52:25.917Z,5.40
2022-10-28T16:54:53.770Z,4.73
2022-10-28T16:59:56.507Z,4.60
2022-10-28T17:02:28.011Z,4.90
2022-10-28T17:04:56.610Z,5.03
2022-10-28T17:07:24.538Z,5.17
2022-10-28T17:09:52.819Z,5.00
2022-10-28T17:12:22.689Z,4.77
2022-10-28T17:14:51.064Z,5.20
2022-10-28T17:17:20.662Z,7.20
2022-10-28T17:19:48.470Z,6.33
2022-10-28T17:22:16.281Z,6.27
2022-10-28T17:24:44.089Z,5.97
2022-10-28T17:27:12.761Z,6.37
2022-10-28T17:29:40.671Z,5.80
2022-10-28T17:32:09.245Z,5.70
2022-10-28T17:34:38.769Z,5.43
2022-10-28T17:37:07.666Z,6.20
2022-10-28T17:39:35.861Z,5.80
2022-10-28T17:42:04.279Z,5.60
2022-10-28T17:44:32.105Z,5.97
2022-10-28T17:46:59.952Z,5.63
2022-10-28T17:49:27.843Z,5.90
2022-10-28T17:51:57.048Z,6.40
2022-10-28T17:54:25.019Z,7.80
2022-10-28T17:56:52.842Z,7.67
2022-10-28T17:59:20.689Z,9.50
2022-10-28T18:01:48.609Z,8.00
2022-10-28T18:04:16.524Z,8.50
2022-10-28T18:06:44.491Z,7.50
2022-10-28T18:09:14.422Z,8.00
2022-10-28T18:11:42.233Z,7.67
2022-10-28T18:14:10.114Z,6.73
2022-10-28T18:16:38.531Z,7.57
2022-10-28T18:19:07.592Z,8.40
2022-10-28T18:21:35.805Z,9.13
2022-10-28T18:24:06.741Z,9.20
2022-10-28T18:26:37.372Z,7.67
2022-10-28T18:29:07.919Z,8.77
2022-10-28T18:31:36.236Z,8.73
2022-10-28T18:34:04.874Z,8.07
2022-10-28T18:36:35.580Z,9.03
2022-10-28T18:39:04.255Z,9.13
2022-10-28T18:41:32.964Z,8.10
2022-10-28T18:44:04.306Z,9.00
2022-10-28T18:46:33.885Z,10.20
2022-10-28T18:49:02.368Z,10.43
2022-10-28T18:51:30.611Z,10.90
2022-10-28T18:53:58.706Z,10.90
2022-10-28T18:56:29.059Z,9.87
2022-10-28T18:58:57.637Z,9.80
2022-10-28T19:01:28.660Z,8.50
2022-10-28T19:03:58.323Z,9.60
2022-10-28T19:06:29.685Z,9.30
2022-10-28T19:08:59.176Z,8.70
2022-10-28T19:11:30.003Z,8.53
2022-10-28T19:13:58.843Z,8.77
2022-10-28T19:16:29.020Z,8.73
2022-10-28T19:18:57.154Z,8.93
2022-10-28T19:21:25.852Z,8.93
2022-10-28T19:23:54.443Z,9.20
2022-10-28T19:26:22.791Z,9.00
2022-10-28T19:28:51.440Z,10.30
2022-10-28T19:31:21.076Z,8.90
2022-10-28T19:33:50.598Z,9.83
2022-10-28T19:36:20.474Z,9.40
2022-10-28T19:38:49.944Z,11.27
2022-10-28T19:41:19.726Z,12.63
2022-10-28T19:43:48.032Z,12.37
2022-10-28T19:46:17.984Z,12.73
2022-10-28T19:48:47.424Z,12.63
2022-10-28T19:51:18.625Z,13.00
2022-10-28T19:53:48.422Z,12.77
2022-10-28T19:56:18.605Z,11.33
2022-10-28T19:58:47.257Z,11.87
2022-10-28T20:01:15.178Z,11.47
2022-10-28T20:03:48.837Z,9.87
2022-10-28T20:06:19.935Z,10.97
2022-10-28T20:08:49.282Z,9.97
2022-10-28T20:11:24.686Z,9.97
2022-10-28T20:13:55.316Z,11.53
2022-10-28T20:16:24.126Z,12.53
2022-10-28T20:18:52.037Z,13.73
2022-10-28T20:21:22.628Z,13.73
2022-10-28T20:23:53.244Z,14.90
2022-10-28T20:26:22.449Z,13.53
2022-10-28T20:28:50.627Z,12.40
2022-10-28T20:31:19.991Z,12.90
2022-10-28T20:33:51.927Z,13.03
2022-10-28T20:36:26.333Z,12.97
2022-10-28T20:38:55.337Z,12.57
2022-10-28T20:41:23.486Z,12.13
2022-10-28T20:43:52.459Z,12.90
2022-10-28T20:46:21.044Z,12.47
2022-10-28T20:48:49.699Z,11.87
2022-10-28T20:51:17.626Z,11.53
2022-10-28T20:53:47.188Z,11.53
2022-10-28T20:56:17.330Z,10.73
2022-10-28T20:58:45.188Z,10.73
2022-10-28T21:01:15.297Z,11.73
2022-10-28T21:03:43.947Z,13.67
2022-10-28T21:08:46.368Z,13.10
2022-10-28T21:11:15.706Z,11.63
2022-10-28T21:13:45.003Z,11.47
2022-10-28T21:16:14.022Z,11.10
2022-10-28T21:18:41.861Z,11.97
2022-10-28T21:21:09.697Z,11.30
2022-10-28T21:23:37.536Z,10.77
2022-10-28T21:26:08.070Z,11.60
2022-10-28T21:28:36.771Z,11.00
2022-10-28T21:31:06.868Z,11.13
2022-10-28T21:33:36.220Z,10.03
2022-10-28T21:36:06.314Z,10.90
2022-10-28T21:38:34.634Z,11.63
2022-10-28T21:41:03.969Z,10.77
2022-10-28T21:43:35.003Z,11.10
2022-10-28T21:46:03.128Z,10.73
2022-10-28T21:48:32.201Z,10.93
2022-10-28T21:51:01.358Z,9.50
2022-10-28T21:53:32.489Z,10.57
2022-10-28T21:56:03.853Z,11.03
2022-10-28T21:58:33.370Z,10.93
2022-10-28T22:01:06.249Z,10.10
2022-10-28T22:03:34.232Z,11.87
2022-10-28T22:06:02.106Z,12.50
2022-10-28T22:08:30.656Z,11.07
2022-10-28T22:11:02.267Z,11.83
2022-10-28T22:13:30.311Z,12.27
2022-10-28T22:16:01.204Z,12.53
2022-10-28T22:18:29.538Z,11.77
2022-10-28T22:20:57.449Z,12.27
2022-10-28T22:23:25.292Z,11.77
2022-10-28T22:25:53.113Z,11.70
2022-10-28T22:28:20.936Z,12.50
2022-10-28T22:30:48.729Z,12.53
2022-10-28T22:33:17.889Z,12.57
2022-10-28T22:35:45.719Z,11.13
2022-10-28T22:38:13.570Z,11.80
2022-10-28T22:40:41.421Z,12.13
2022-10-28T22:43:09.264Z,13.00
2022-10-28T22:45:37.070Z,11.93
2022-10-28T22:48:05.118Z,12.43
2022-10-28T22:50:34.258Z,11.50
2022-10-28T22:53:02.096Z,13.10
2022-10-28T22:55:29.865Z,12.40
2022-10-28T22:57:58.132Z,12.60
2022-10-28T23:00:26.161Z,14.27
2022-10-28T23:02:54.332Z,13.37
2022-10-28T23:05:22.490Z,13.13
2022-10-28T23:07:53.449Z,12.60
2022-10-28T23:10:21.269Z,12.17
2022-10-28T23:12:49.094Z,12.00
2022-10-28T23:15:17.109Z,12.70
2022-10-28T23:17:49.128Z,13.87
2022-10-28T23:20:17.186Z,13.57
2022-10-28T23:22:45.017Z,12.50
2022-10-28T23:25:14.612Z,12.20
2022-10-28T23:27:43.455Z,13.30
2022-10-28T23:30:13.715Z,12.77
2022-10-28T23:32:41.810Z,15.47
2022-10-28T23:35:09.925Z,11.70
2022-10-28T23:37:37.748Z,11.50
2022-10-28T23:40:06.790Z,12.10
2022-10-28T23:42:35.995Z,12.27
2022-10-28T23:45:03.941Z,12.93
2022-10-28T23:47:31.775Z,12.43
2022-10-28T23:49:59.642Z,12.17
2022-10-28T23:52:27.473Z,12.40
2022-10-28T23:54:55.295Z,12.53
2022-10-28T23:57:23.100Z,12.13
2022-10-28T23:59:53.522Z,12.57
